createdAt,value
2016-10-05T00:00:51.444Z,1029.38
2016-10-05T00:01:51.430Z,1029.39
2016-10-05T00:02:51.411Z,1029.4
2016-10-05T00:03:51.390Z,1029.38
2016-10-05T00:04:51.379Z,1029.41
2016-10-05T00:05:51.357Z,1029.38
2016-10-05T00:06:51.342Z,1029.39
2016-10-05T00:07:51.323Z,1029.4
2016-10-05T00:08:51.307Z,1029.42
2016-10-05T00:09:51.286Z,1029.4
2016-10-05T00:10:51.273Z,1029.42
2016-10-05T00:11:51.259Z,1029.43
2016-10-05T00:12:51.238Z,1029.46
2016-10-05T00:13:51.220Z,1029.44
2016-10-05T00:14:51.204Z,1029.47
2016-10-05T00:15:51.187Z,1029.46
2016-10-05T00:16:51.167Z,1029.44
2016-10-05T00:17:51.151Z,1029.43
2016-10-05T00:18:51.130Z,1029.4
2016-10-05T00:19:51.116Z,1029.42
2016-10-05T00:20:51.098Z,1029.4
2016-10-05T00:21:51.082Z,1029.36
2016-10-05T00:22:51.066Z,1029.38
2016-10-05T00:23:51.049Z,1029.42
2016-10-05T00:24:51.031Z,1029.41
2016-10-05T00:25:51.013Z,1029.41
2016-10-05T00:26:50.997Z,1029.45
2016-10-05T00:27:50.977Z,1029.41
2016-10-05T00:28:50.961Z,1029.4
2016-10-05T00:29:50.942Z,1029.39
2016-10-05T00:30:50.927Z,1029.44
2016-10-05T00:31:50.912Z,1029.47
2016-10-05T00:32:50.891Z,1029.44
2016-10-05T00:33:50.873Z,1029.43
2016-10-05T00:34:50.856Z,1029.41
2016-10-05T00:35:50.841Z,1029.38
2016-10-05T00:36:50.823Z,1029.35
2016-10-05T00:37:50.804Z,1029.29
2016-10-05T00:38:50.789Z,1029.31
2016-10-05T00:39:50.811Z,1029.26
2016-10-05T00:40:50.757Z,1029.27
2016-10-05T00:41:50.733Z,1029.29
2016-10-05T00:42:50.717Z,1029.29
2016-10-05T00:43:50.701Z,1029.27
2016-10-05T00:44:50.682Z,1029.28
2016-10-05T00:45:50.669Z,1029.25
2016-10-05T00:46:50.647Z,1029.27
2016-10-05T00:47:50.634Z,1029.27
2016-10-05T00:48:50.618Z,1029.23
2016-10-05T00:49:50.597Z,1029.24
2016-10-05T00:50:50.583Z,1029.24
2016-10-05T00:51:50.564Z,1029.25
2016-10-05T00:52:50.547Z,1029.25
2016-10-05T00:53:50.527Z,1029.23
2016-10-05T00:54:50.511Z,1029.23
2016-10-05T00:55:50.491Z,1029.23
2016-10-05T00:56:50.476Z,1029.24
2016-10-05T00:57:50.464Z,1029.27
2016-10-05T00:58:50.441Z,1029.26
2016-10-05T00:59:50.430Z,1029.21
2016-10-05T01:00:50.409Z,1029.22
2016-10-05T01:01:50.392Z,1029.21
2016-10-05T01:02:50.375Z,1029.19
2016-10-05T01:03:50.357Z,1029.2
2016-10-05T01:04:50.338Z,1029.15
2016-10-05T01:05:50.320Z,1029.13
2016-10-05T01:06:50.308Z,1029.16
2016-10-05T01:07:50.418Z,1029.19
2016-10-05T01:08:50.268Z,1029.15
2016-10-05T01:09:50.253Z,1029.17
2016-10-05T01:10:50.235Z,1029.15
2016-10-05T01:11:50.230Z,1029.13
2016-10-05T01:12:50.202Z,1029.09
2016-10-05T01:13:50.183Z,1029.12
2016-10-05T01:14:50.167Z,1029.09
2016-10-05T01:15:50.150Z,1029.1
2016-10-05T01:16:50.136Z,1029.03
2016-10-05T01:17:50.115Z,1029.07
2016-10-05T01:18:50.100Z,1029.05
2016-10-05T01:19:50.081Z,1029.03
2016-10-05T01:20:50.063Z,1028.98
2016-10-05T01:21:50.048Z,1029
2016-10-05T01:22:50.029Z,1028.97
2016-10-05T01:23:50.012Z,1028.97
2016-10-05T01:24:49.994Z,1028.94
2016-10-05T01:25:49.976Z,1028.96
2016-10-05T01:26:49.962Z,1028.97
2016-10-05T01:27:49.941Z,1028.95
2016-10-05T01:28:49.929Z,1028.96
2016-10-05T01:29:49.908Z,1028.95
2016-10-05T01:30:49.891Z,1028.93
2016-10-05T01:31:49.876Z,1028.96
2016-10-05T01:32:49.856Z,1028.95
2016-10-05T01:33:49.841Z,1028.99
2016-10-05T01:34:49.824Z,1029
2016-10-05T01:35:49.807Z,1028.98
2016-10-05T01:36:49.787Z,1028.95
2016-10-05T01:37:49.769Z,1028.97
2016-10-05T01:38:49.756Z,1028.93
2016-10-05T01:39:49.736Z,1028.99
2016-10-05T01:40:49.720Z,1029
2016-10-05T01:41:49.704Z,1029.04
2016-10-05T01:42:49.688Z,1029.04
2016-10-05T01:43:49.666Z,1029.07
2016-10-05T01:44:49.652Z,1029.08
2016-10-05T01:45:49.629Z,1029.12
2016-10-05T01:46:49.614Z,1029.09
2016-10-05T01:47:49.598Z,1029.11
2016-10-05T01:48:49.583Z,1029.18
2016-10-05T01:49:49.565Z,1029.1
2016-10-05T01:50:49.546Z,1029.15
2016-10-05T01:51:49.526Z,1029.15
2016-10-05T01:52:49.511Z,1029.17
2016-10-05T01:53:49.494Z,1029.21
2016-10-05T01:54:49.478Z,1029.12
2016-10-05T01:55:49.458Z,1029.1
2016-10-05T01:56:49.441Z,1029.06
2016-10-05T01:57:49.426Z,1029.08
2016-10-05T01:58:49.407Z,1029.05
2016-10-05T01:59:49.390Z,1029.07
2016-10-05T02:00:49.376Z,1029.01
2016-10-05T02:01:49.359Z,1029.01
2016-10-05T02:02:49.337Z,1028.98
2016-10-05T02:03:49.327Z,1028.99
2016-10-05T02:04:49.304Z,1028.97
2016-10-05T02:05:49.284Z,1028.94
2016-10-05T02:06:49.268Z,1028.93
2016-10-05T02:07:49.254Z,1028.91
2016-10-05T02:08:49.235Z,1028.95
2016-10-05T02:09:49.218Z,1028.88
2016-10-05T02:10:49.206Z,1028.94
2016-10-05T02:11:49.182Z,1028.97
2016-10-05T02:12:49.166Z,1028.93
2016-10-05T02:13:49.151Z,1028.94
2016-10-05T02:14:49.127Z,1028.95
2016-10-05T02:15:49.116Z,1028.92
2016-10-05T02:16:49.095Z,1028.92
2016-10-05T02:17:49.084Z,1028.9
2016-10-05T02:18:49.061Z,1028.88
2016-10-05T02:19:49.047Z,1028.83
2016-10-05T02:20:49.029Z,1028.85
2016-10-05T02:21:49.009Z,1028.85
2016-10-05T02:22:48.994Z,1028.85
2016-10-05T02:23:48.974Z,1028.8
2016-10-05T02:24:48.954Z,1028.8
2016-10-05T02:25:48.939Z,1028.78
2016-10-05T02:26:48.924Z,1028.81
2016-10-05T02:27:48.903Z,1028.81
2016-10-05T02:28:48.886Z,1028.82
2016-10-05T02:29:48.870Z,1028.84
2016-10-05T02:30:48.855Z,1028.89
2016-10-05T02:31:48.830Z,1028.87
2016-10-05T02:32:48.820Z,1028.87
2016-10-05T02:33:48.802Z,1028.88
2016-10-05T02:34:48.784Z,1028.89
2016-10-05T02:35:48.765Z,1028.89
2016-10-05T02:36:48.748Z,1028.9
2016-10-05T02:37:48.733Z,1028.9
2016-10-05T02:38:48.714Z,1028.87
2016-10-05T02:39:48.692Z,1028.84
2016-10-05T02:40:48.680Z,1028.86
2016-10-05T02:41:48.663Z,1028.87
2016-10-05T02:42:48.645Z,1028.88
2016-10-05T02:43:48.626Z,1028.91
2016-10-05T02:44:48.610Z,1028.9
2016-10-05T02:45:48.592Z,1028.9
2016-10-05T02:46:48.575Z,1028.83
2016-10-05T02:47:48.560Z,1028.82
2016-10-05T02:48:48.543Z,1028.87
2016-10-05T02:49:48.522Z,1028.87
2016-10-05T02:50:48.506Z,1028.86
2016-10-05T02:51:48.488Z,1028.84
2016-10-05T02:52:48.471Z,1028.84
2016-10-05T02:53:48.457Z,1028.83
2016-10-05T02:54:48.437Z,1028.83
2016-10-05T02:55:48.418Z,1028.84
2016-10-05T02:56:48.404Z,1028.81
2016-10-05T02:57:48.386Z,1028.91
2016-10-05T02:58:48.367Z,1028.92
2016-10-05T02:59:48.351Z,1028.92
2016-10-05T03:00:48.331Z,1028.89
2016-10-05T03:01:48.315Z,1028.93
2016-10-05T03:02:48.301Z,1028.91
2016-10-05T03:03:48.281Z,1028.92
2016-10-05T03:04:48.263Z,1028.9
2016-10-05T03:05:48.246Z,1028.88
2016-10-05T03:06:48.229Z,1028.92
2016-10-05T03:07:48.211Z,1028.89
2016-10-05T03:08:48.192Z,1028.88
2016-10-05T03:09:48.175Z,1028.84
2016-10-05T03:10:48.166Z,1028.88
2016-10-05T03:11:48.143Z,1028.84
2016-10-05T03:12:48.128Z,1028.8
2016-10-05T03:13:48.108Z,1028.86
2016-10-05T03:14:48.088Z,1028.85
2016-10-05T03:15:48.073Z,1028.77
2016-10-05T03:16:48.053Z,1028.81
2016-10-05T03:17:48.039Z,1028.78
2016-10-05T03:18:48.019Z,1028.87
2016-10-05T03:19:48.003Z,1028.81
2016-10-05T03:20:47.985Z,1028.78
2016-10-05T03:21:47.971Z,1028.84
2016-10-05T03:22:47.953Z,1028.84
2016-10-05T03:23:47.934Z,1028.84
2016-10-05T03:24:47.912Z,1028.82
2016-10-05T03:25:47.900Z,1028.87
2016-10-05T03:26:47.878Z,1028.84
2016-10-05T03:27:47.863Z,1028.79
2016-10-05T03:28:47.848Z,1028.83
2016-10-05T03:29:47.832Z,1028.81
2016-10-05T03:30:47.813Z,1028.8
2016-10-05T03:31:47.792Z,1028.77
2016-10-05T03:32:47.777Z,1028.8
2016-10-05T03:33:47.760Z,1028.77
2016-10-05T03:34:47.743Z,1028.81
2016-10-05T03:35:47.725Z,1028.81
2016-10-05T03:36:47.707Z,1028.83
2016-10-05T03:37:47.690Z,1028.78
2016-10-05T03:38:47.674Z,1028.75
2016-10-05T03:39:47.653Z,1028.74
2016-10-05T03:40:47.637Z,1028.76
2016-10-05T03:41:47.623Z,1028.73
2016-10-05T03:42:47.604Z,1028.71
2016-10-05T03:43:47.589Z,1028.7
2016-10-05T03:44:47.566Z,1028.7
2016-10-05T03:45:47.551Z,1028.73
2016-10-05T03:46:47.532Z,1028.74
2016-10-05T03:47:47.516Z,1028.7
2016-10-05T03:48:47.503Z,1028.66
2016-10-05T03:49:47.481Z,1028.68
2016-10-05T03:50:47.465Z,1028.66
2016-10-05T03:51:47.444Z,1028.65
2016-10-05T03:52:47.428Z,1028.69
2016-10-05T03:53:47.413Z,1028.68
2016-10-05T03:54:47.391Z,1028.63
2016-10-05T03:55:47.382Z,1028.6
2016-10-05T03:56:47.358Z,1028.6
2016-10-05T03:57:47.342Z,1028.63
2016-10-05T03:58:47.325Z,1028.63
2016-10-05T03:59:47.304Z,1028.6
2016-10-05T04:00:47.290Z,1028.64
2016-10-05T04:01:47.273Z,1028.67
2016-10-05T04:02:47.254Z,1028.67
2016-10-05T04:03:47.237Z,1028.67
2016-10-05T04:04:47.219Z,1028.69
2016-10-05T04:05:47.202Z,1028.72
2016-10-05T04:06:47.183Z,1028.69
2016-10-05T04:07:47.168Z,1028.73
2016-10-05T04:08:47.151Z,1028.68
2016-10-05T04:09:47.129Z,1028.73
2016-10-05T04:10:47.123Z,1028.7
2016-10-05T04:11:47.099Z,1028.74
2016-10-05T04:12:47.084Z,1028.75
2016-10-05T04:13:47.065Z,1028.77
2016-10-05T04:14:47.043Z,1028.74
2016-10-05T04:15:47.025Z,1028.77
2016-10-05T04:16:47.012Z,1028.77
2016-10-05T04:17:46.999Z,1028.8
2016-10-05T04:18:46.975Z,1028.77
2016-10-05T04:19:46.958Z,1028.78
2016-10-05T04:20:46.943Z,1028.74
2016-10-05T04:21:46.924Z,1028.76
2016-10-05T04:22:46.920Z,1028.78
2016-10-05T04:23:46.890Z,1028.76
2016-10-05T04:24:46.873Z,1028.84
2016-10-05T04:25:46.857Z,1028.82
2016-10-05T04:26:46.841Z,1028.87
2016-10-05T04:27:46.821Z,1028.85
2016-10-05T04:28:46.802Z,1028.85
2016-10-05T04:29:46.781Z,1028.88
2016-10-05T04:30:46.773Z,1028.89
2016-10-05T04:31:46.749Z,1028.92
2016-10-05T04:32:46.730Z,1028.94
2016-10-05T04:33:46.715Z,1028.95
2016-10-05T04:34:46.698Z,1028.89
2016-10-05T04:35:46.679Z,1028.87
2016-10-05T04:36:46.666Z,1028.91
2016-10-05T04:37:46.646Z,1028.88
2016-10-05T04:38:46.629Z,1028.89
2016-10-05T04:39:46.607Z,1028.84
2016-10-05T04:40:46.590Z,1028.88
2016-10-05T04:41:46.574Z,1028.81
2016-10-05T04:42:46.557Z,1028.86
2016-10-05T04:43:46.552Z,1028.86
2016-10-05T04:44:46.523Z,1028.87
2016-10-05T04:45:46.506Z,1028.95
2016-10-05T04:46:46.485Z,1028.98
2016-10-05T04:47:46.468Z,1029.02
2016-10-05T04:48:46.452Z,1028.99
2016-10-05T04:49:46.433Z,1029.01
2016-10-05T04:50:46.417Z,1028.99
2016-10-05T04:51:46.400Z,1029.04
2016-10-05T04:52:46.389Z,1029.02
2016-10-05T04:53:46.366Z,1029.04
2016-10-05T04:54:46.341Z,1029.05
2016-10-05T04:55:46.329Z,1029.03
2016-10-05T04:56:46.312Z,1028.99
2016-10-05T04:57:46.294Z,1029.05
2016-10-05T04:58:46.279Z,1029.03
2016-10-05T04:59:46.259Z,1029.05
2016-10-05T05:00:46.242Z,1029.04
2016-10-05T05:01:46.223Z,1029.05
2016-10-05T05:02:46.206Z,1029.06
2016-10-05T05:03:46.185Z,1029.06
2016-10-05T05:04:46.171Z,1029.1
2016-10-05T05:05:46.154Z,1029.07
2016-10-05T05:06:46.134Z,1029.11
2016-10-05T05:07:46.125Z,1029.09
2016-10-05T05:08:46.100Z,1029.06
2016-10-05T05:09:46.097Z,1029.09
2016-10-05T05:10:46.068Z,1029.1
2016-10-05T05:11:46.053Z,1029.09
2016-10-05T05:12:46.038Z,1029.1
2016-10-05T05:13:46.012Z,1029.06
2016-10-05T05:14:46.000Z,1029.01
2016-10-05T05:15:45.979Z,1029.05
2016-10-05T05:16:45.964Z,1029.1
2016-10-05T05:17:45.945Z,1029.08
2016-10-05T05:18:45.935Z,1029.08
2016-10-05T05:19:45.907Z,1029.09
2016-10-05T05:20:45.892Z,1029.12
2016-10-05T05:21:45.874Z,1029.11
2016-10-05T05:22:45.855Z,1029.07
2016-10-05T05:23:45.839Z,1029.13
2016-10-05T05:24:45.825Z,1029.18
2016-10-05T05:25:45.805Z,1029.08
2016-10-05T05:26:45.788Z,1029.1
2016-10-05T05:27:45.770Z,1029.15
2016-10-05T05:28:45.762Z,1029.14
2016-10-05T05:29:45.735Z,1029.14
2016-10-05T05:30:45.715Z,1029.1
2016-10-05T05:31:45.700Z,1029.18
2016-10-05T05:32:45.714Z,1029.18
2016-10-05T05:33:45.665Z,1029.2
2016-10-05T05:34:45.648Z,1029.16
2016-10-05T05:35:45.629Z,1029.13
2016-10-05T05:36:45.614Z,1029.18
2016-10-05T05:37:45.595Z,1029.12
2016-10-05T05:38:45.576Z,1029.14
2016-10-05T05:39:45.562Z,1029.09
2016-10-05T05:40:45.543Z,1029.12
2016-10-05T05:41:45.533Z,1029.06
2016-10-05T05:42:45.509Z,1029.09
2016-10-05T05:43:45.495Z,1029.08
2016-10-05T05:44:45.471Z,1029.09
2016-10-05T05:45:45.459Z,1029.09
2016-10-05T05:46:45.437Z,1029.1
2016-10-05T05:47:45.420Z,1029.14
2016-10-05T05:48:45.408Z,1029.17
2016-10-05T05:49:45.385Z,1029.16
2016-10-05T05:50:45.371Z,1029.16
2016-10-05T05:51:45.350Z,1029.14
2016-10-05T05:52:45.333Z,1029.15
2016-10-05T05:53:45.318Z,1029.16
2016-10-05T05:54:45.298Z,1029.16
2016-10-05T05:55:45.279Z,1029.18
2016-10-05T05:56:45.261Z,1029.18
2016-10-05T05:57:45.242Z,1029.21
2016-10-05T05:58:45.229Z,1029.25
2016-10-05T05:59:45.210Z,1029.24
2016-10-05T06:00:45.191Z,1029.2
2016-10-05T06:01:45.179Z,1029.24
2016-10-05T06:02:45.156Z,1029.18
2016-10-05T06:03:45.138Z,1029.17
2016-10-05T06:04:45.125Z,1029.13
2016-10-05T06:05:45.104Z,1029.15
2016-10-05T06:06:45.086Z,1029.15
2016-10-05T06:07:45.068Z,1029.14
2016-10-05T06:08:45.051Z,1029.21
2016-10-05T06:09:45.032Z,1029.24
2016-10-05T06:10:45.016Z,1029.22
2016-10-05T06:11:44.999Z,1029.2
2016-10-05T06:12:44.981Z,1029.24
2016-10-05T06:13:44.965Z,1029.25
2016-10-05T06:14:44.946Z,1029.28
2016-10-05T06:15:44.928Z,1029.32
2016-10-05T06:16:44.910Z,1029.26
2016-10-05T06:17:44.892Z,1029.28
2016-10-05T06:18:44.878Z,1029.27
2016-10-05T06:19:44.858Z,1029.28
2016-10-05T06:20:44.841Z,1029.28
2016-10-05T06:21:44.824Z,1029.27
2016-10-05T06:22:44.811Z,1029.3
2016-10-05T06:23:44.786Z,1029.3
2016-10-05T06:24:44.770Z,1029.28
2016-10-05T06:25:44.753Z,1029.33
2016-10-05T06:26:44.735Z,1029.36
2016-10-05T06:27:44.723Z,1029.28
2016-10-05T06:28:44.699Z,1029.35
2016-10-05T06:29:44.682Z,1029.32
2016-10-05T06:30:44.664Z,1029.39
2016-10-05T06:31:44.649Z,1029.37
2016-10-05T06:32:44.633Z,1029.33
2016-10-05T06:33:44.615Z,1029.37
2016-10-05T06:34:44.595Z,1029.34
2016-10-05T06:35:44.577Z,1029.3
2016-10-05T06:36:44.561Z,1029.29
2016-10-05T06:37:44.543Z,1029.25
2016-10-05T06:38:44.526Z,1029.28
2016-10-05T06:39:44.506Z,1029.27
2016-10-05T06:40:44.491Z,1029.24
2016-10-05T06:41:44.472Z,1029.25
2016-10-05T06:42:44.453Z,1029.29
2016-10-05T06:43:44.440Z,1029.3
2016-10-05T06:44:44.420Z,1029.26
2016-10-05T06:45:44.401Z,1029.33
2016-10-05T06:46:44.388Z,1029.29
2016-10-05T06:47:44.364Z,1029.3
2016-10-05T06:48:44.348Z,1029.34
2016-10-05T06:49:44.332Z,1029.37
2016-10-05T06:50:44.313Z,1029.4
2016-10-05T06:51:44.296Z,1029.36
2016-10-05T06:52:44.279Z,1029.33
2016-10-05T06:53:44.262Z,1029.39
2016-10-05T06:54:44.242Z,1029.39
2016-10-05T06:55:44.227Z,1029.4
2016-10-05T06:56:44.210Z,1029.42
2016-10-05T06:57:44.188Z,1029.4
2016-10-05T06:58:44.177Z,1029.39
2016-10-05T06:59:44.156Z,1029.34
2016-10-05T07:00:44.138Z,1029.44
2016-10-05T07:01:44.122Z,1029.42
2016-10-05T07:02:44.103Z,1029.39
2016-10-05T07:03:44.086Z,1029.41
2016-10-05T07:04:44.071Z,1029.44
2016-10-05T07:05:44.051Z,1029.43
2016-10-05T07:06:44.034Z,1029.38
2016-10-05T07:07:44.016Z,1029.34
2016-10-05T07:08:43.999Z,1029.38
2016-10-05T07:09:43.978Z,1029.37
2016-10-05T07:10:43.963Z,1029.36
2016-10-05T07:11:43.948Z,1029.41
2016-10-05T07:12:43.925Z,1029.41
2016-10-05T07:13:43.914Z,1029.36
2016-10-05T07:14:43.893Z,1029.41
2016-10-05T07:15:43.877Z,1029.36
2016-10-05T07:16:43.854Z,1029.36
2016-10-05T07:17:43.841Z,1029.36
2016-10-05T07:18:43.824Z,1029.36
2016-10-05T07:19:43.809Z,1029.4
2016-10-05T07:20:43.787Z,1029.38
2016-10-05T07:21:43.769Z,1029.36
2016-10-05T07:22:43.760Z,1029.38
2016-10-05T07:23:43.742Z,1029.35
2016-10-05T07:24:43.719Z,1029.36
2016-10-05T07:25:43.703Z,1029.44
2016-10-05T07:26:43.685Z,1029.4
2016-10-05T07:27:43.665Z,1029.35
2016-10-05T07:28:43.653Z,1029.38
2016-10-05T07:29:43.629Z,1029.38
2016-10-05T07:30:43.616Z,1029.35
2016-10-05T07:31:43.593Z,1029.43
2016-10-05T07:32:43.575Z,1029.4
2016-10-05T07:33:43.561Z,1029.44
2016-10-05T07:34:43.543Z,1029.45
2016-10-05T07:35:43.527Z,1029.44
2016-10-05T07:36:43.511Z,1029.49
2016-10-05T07:37:43.489Z,1029.44
2016-10-05T07:38:43.472Z,1029.42
2016-10-05T07:39:43.455Z,1029.38
2016-10-05T07:40:43.437Z,1029.36
2016-10-05T07:41:43.419Z,1029.41
2016-10-05T07:42:43.402Z,1029.41
2016-10-05T07:43:43.384Z,1029.42
2016-10-05T07:44:43.369Z,1029.43
2016-10-05T07:45:43.350Z,1029.44
2016-10-05T07:46:43.337Z,1029.47
2016-10-05T07:47:43.316Z,1029.46
2016-10-05T07:48:43.297Z,1029.5
2016-10-05T07:49:43.280Z,1029.54
2016-10-05T07:50:43.276Z,1029.5
2016-10-05T07:51:43.246Z,1029.53
2016-10-05T07:52:43.228Z,1029.53
2016-10-05T07:53:43.209Z,1029.53
2016-10-05T07:54:43.194Z,1029.5
2016-10-05T07:55:43.174Z,1029.52
2016-10-05T07:56:43.158Z,1029.51
2016-10-05T07:57:43.141Z,1029.55
2016-10-05T07:58:43.123Z,1029.54
2016-10-05T07:59:43.102Z,1029.55
2016-10-05T08:00:43.089Z,1029.56
2016-10-05T08:01:43.078Z,1029.49
2016-10-05T08:02:43.054Z,1029.52
2016-10-05T08:03:43.033Z,1029.53
2016-10-05T08:04:43.033Z,1029.54
2016-10-05T08:05:43.001Z,1029.5
2016-10-05T08:06:42.984Z,1029.51
2016-10-05T08:07:42.964Z,1029.49
2016-10-05T08:08:42.948Z,1029.5
2016-10-05T08:09:42.928Z,1029.51
2016-10-05T08:10:42.913Z,1029.53
2016-10-05T08:11:42.899Z,1029.49
2016-10-05T08:12:42.879Z,1029.46
2016-10-05T08:13:42.858Z,1029.51
2016-10-05T08:14:42.838Z,1029.48
2016-10-05T08:15:42.825Z,1029.49
2016-10-05T08:16:42.810Z,1029.48
2016-10-05T08:17:42.786Z,1029.48
2016-10-05T08:18:42.772Z,1029.49
2016-10-05T08:19:42.752Z,1029.53
2016-10-05T08:20:42.741Z,1029.47
2016-10-05T08:21:42.727Z,1029.49
2016-10-05T08:22:42.697Z,1029.51
2016-10-05T08:23:42.685Z,1029.52
2016-10-05T08:24:42.671Z,1029.5
2016-10-05T08:25:42.659Z,1029.5
2016-10-05T08:26:42.632Z,1029.49
2016-10-05T08:27:42.625Z,1029.48
2016-10-05T08:28:42.602Z,1029.54
2016-10-05T08:29:42.575Z,1029.48
2016-10-05T08:30:42.555Z,1029.47
2016-10-05T08:31:42.552Z,1029.52
2016-10-05T08:32:42.527Z,1029.54
2016-10-05T08:33:42.512Z,1029.53
2016-10-05T08:34:42.489Z,1029.52
2016-10-05T08:35:42.474Z,1029.55
2016-10-05T08:36:42.454Z,1029.58
2016-10-05T08:37:42.439Z,1029.6
2016-10-05T08:38:42.422Z,1029.6
2016-10-05T08:39:42.402Z,1029.65
2016-10-05T08:40:42.393Z,1029.6
2016-10-05T08:41:42.368Z,1029.57
2016-10-05T08:42:42.350Z,1029.62
2016-10-05T08:43:42.334Z,1029.6
2016-10-05T08:44:42.314Z,1029.66
2016-10-05T08:45:42.298Z,1029.6
2016-10-05T08:46:42.277Z,1029.57
2016-10-05T08:47:42.261Z,1029.62
2016-10-05T08:48:42.244Z,1029.55
2016-10-05T08:49:42.239Z,1029.58
2016-10-05T08:50:42.214Z,1029.62
2016-10-05T08:51:42.192Z,1029.64
2016-10-05T08:52:42.173Z,1029.66
2016-10-05T08:53:42.158Z,1029.6
2016-10-05T08:54:42.141Z,1029.62
2016-10-05T08:55:42.123Z,1029.64
2016-10-05T08:56:42.106Z,1029.58
2016-10-05T08:57:42.089Z,1029.6
2016-10-05T08:58:42.070Z,1029.64
2016-10-05T08:59:42.052Z,1029.69
2016-10-05T09:00:42.034Z,1029.62
2016-10-05T09:01:42.018Z,1029.62
2016-10-05T09:02:41.999Z,1029.62
2016-10-05T09:03:41.980Z,1029.62
2016-10-05T09:04:41.963Z,1029.64
2016-10-05T09:05:41.948Z,1029.66
2016-10-05T09:06:41.930Z,1029.68
2016-10-05T09:07:41.911Z,1029.65
2016-10-05T09:08:41.893Z,1029.6
2016-10-05T09:09:41.879Z,1029.66
2016-10-05T09:10:41.858Z,1029.66
2016-10-05T09:11:41.840Z,1029.65
2016-10-05T09:12:41.826Z,1029.62
2016-10-05T09:13:41.806Z,1029.64
2016-10-05T09:14:41.791Z,1029.64
2016-10-05T09:15:41.769Z,1029.69
2016-10-05T09:16:41.752Z,1029.69
2016-10-05T09:17:41.734Z,1029.61
2016-10-05T09:18:41.716Z,1029.66
2016-10-05T09:19:41.701Z,1029.61
2016-10-05T09:20:41.681Z,1029.63
2016-10-05T09:21:41.665Z,1029.69
2016-10-05T09:22:41.647Z,1029.67
2016-10-05T09:23:41.629Z,1029.68
2016-10-05T09:24:41.614Z,1029.62
2016-10-05T09:25:41.595Z,1029.64
2016-10-05T09:26:41.578Z,1029.66
2016-10-05T09:27:41.556Z,1029.63
2016-10-05T09:28:41.541Z,1029.63
2016-10-05T09:29:41.526Z,1029.62
2016-10-05T09:30:41.507Z,1029.58
2016-10-05T09:31:41.498Z,1029.61
2016-10-05T09:32:41.470Z,1029.55
2016-10-05T09:33:41.452Z,1029.54
2016-10-05T09:34:41.438Z,1029.6
2016-10-05T09:35:41.417Z,1029.56
2016-10-05T09:36:41.405Z,1029.58
2016-10-05T09:37:41.384Z,1029.51
2016-10-05T09:38:41.365Z,1029.57
2016-10-05T09:39:41.348Z,1029.54
2016-10-05T09:40:41.334Z,1029.58
2016-10-05T09:41:41.317Z,1029.63
2016-10-05T09:42:41.295Z,1029.56
2016-10-05T09:43:41.284Z,1029.46
2016-10-05T09:44:41.258Z,1029.51
2016-10-05T09:45:41.243Z,1029.63
2016-10-05T09:46:41.225Z,1029.52
2016-10-05T09:47:41.210Z,1029.55
2016-10-05T09:48:41.191Z,1029.49
2016-10-05T09:49:41.171Z,1029.48
2016-10-05T09:50:41.159Z,1029.47
2016-10-05T09:51:41.141Z,1029.37
2016-10-05T09:52:41.120Z,1029.4
2016-10-05T09:53:41.099Z,1029.36
2016-10-05T09:54:41.085Z,1029.38
2016-10-05T09:55:41.067Z,1029.39
2016-10-05T09:56:41.051Z,1029.42
2016-10-05T09:57:41.032Z,1029.37
2016-10-05T09:58:41.014Z,1029.37
2016-10-05T09:59:40.998Z,1029.37
2016-10-05T10:00:40.982Z,1029.32
2016-10-05T10:01:40.962Z,1029.33
2016-10-05T10:02:40.946Z,1029.34
2016-10-05T10:03:40.926Z,1029.39
2016-10-05T10:04:40.908Z,1029.32
2016-10-05T10:05:40.892Z,1029.4
2016-10-05T10:06:40.872Z,1029.31
2016-10-05T10:07:40.862Z,1029.25
2016-10-05T10:08:40.840Z,1029.26
2016-10-05T10:09:40.821Z,1029.26
2016-10-05T10:10:40.803Z,1029.3
2016-10-05T10:11:40.786Z,1029.26
2016-10-05T10:12:40.773Z,1029.28
2016-10-05T10:13:40.756Z,1029.24
2016-10-05T10:14:40.733Z,1029.28
2016-10-05T10:15:40.717Z,1029.24
2016-10-05T10:16:40.699Z,1029.19
2016-10-05T10:17:40.682Z,1029.18
2016-10-05T10:18:40.662Z,1029.17
2016-10-05T10:19:40.644Z,1029.14
2016-10-05T10:20:40.629Z,1029.11
2016-10-05T10:21:40.614Z,1029.1
2016-10-05T10:22:40.592Z,1029.09
2016-10-05T10:23:40.574Z,1029
2016-10-05T10:24:40.559Z,1029.07
2016-10-05T10:25:40.539Z,1028.99
2016-10-05T10:26:40.522Z,1028.96
2016-10-05T10:27:40.504Z,1028.96
2016-10-05T10:28:40.489Z,1028.93
2016-10-05T10:29:40.472Z,1028.88
2016-10-05T10:30:40.453Z,1028.89
2016-10-05T10:31:40.439Z,1028.86
2016-10-05T10:32:40.420Z,1028.87
2016-10-05T10:33:40.399Z,1028.86
2016-10-05T10:34:40.382Z,1028.8
2016-10-05T10:35:40.365Z,1028.8
2016-10-05T10:36:40.346Z,1028.74
2016-10-05T10:37:40.328Z,1028.78
2016-10-05T10:38:40.310Z,1028.78
2016-10-05T10:39:40.298Z,1028.74
2016-10-05T10:40:40.276Z,1028.74
2016-10-05T10:41:40.267Z,1028.67
2016-10-05T10:42:40.242Z,1028.65
2016-10-05T10:43:40.225Z,1028.64
2016-10-05T10:44:40.209Z,1028.69
2016-10-05T10:45:40.193Z,1028.65
2016-10-05T10:46:40.175Z,1028.67
2016-10-05T10:47:40.151Z,1028.65
2016-10-05T10:48:40.137Z,1028.67
2016-10-05T10:49:40.119Z,1028.64
2016-10-05T10:50:40.101Z,1028.62
2016-10-05T10:51:40.083Z,1028.66
2016-10-05T10:52:40.064Z,1028.57
2016-10-05T10:53:40.052Z,1028.6
2016-10-05T10:54:40.031Z,1028.56
2016-10-05T10:55:40.011Z,1028.54
2016-10-05T10:56:39.998Z,1028.51
2016-10-05T10:57:39.977Z,1028.56
2016-10-05T10:58:39.962Z,1028.55
2016-10-05T10:59:39.942Z,1028.55
2016-10-05T11:00:39.928Z,1028.49
2016-10-05T11:01:39.907Z,1028.42
2016-10-05T11:02:39.888Z,1028.41
2016-10-05T11:03:39.867Z,1028.39
2016-10-05T11:04:39.853Z,1028.38
2016-10-05T11:05:39.837Z,1028.32
2016-10-05T11:06:39.837Z,1028.37
2016-10-05T11:07:39.805Z,1028.34
2016-10-05T11:08:39.783Z,1028.38
2016-10-05T11:09:39.766Z,1028.24
2016-10-05T11:10:39.754Z,1028.28
2016-10-05T11:11:39.731Z,1028.28
2016-10-05T11:12:39.714Z,1028.33
2016-10-05T11:13:39.696Z,1028.35
2016-10-05T11:14:39.678Z,1028.29
2016-10-05T11:15:39.664Z,1028.22
2016-10-05T11:16:39.643Z,1028.24
2016-10-05T11:17:39.627Z,1028.24
2016-10-05T11:18:39.606Z,1028.3
2016-10-05T11:19:39.589Z,1028.32
2016-10-05T11:20:39.570Z,1028.29
2016-10-05T11:21:39.559Z,1028.23
2016-10-05T11:22:39.540Z,1028.26
2016-10-05T11:23:39.518Z,1028.31
2016-10-05T11:24:39.515Z,1028.3
2016-10-05T11:25:39.483Z,1028.29
2016-10-05T11:26:39.464Z,1028.25
2016-10-05T11:27:39.448Z,1028.16
2016-10-05T11:28:39.431Z,1028.21
2016-10-05T11:29:39.414Z,1028.12
2016-10-05T11:30:39.399Z,1028.16
2016-10-05T11:31:39.379Z,1028.14
2016-10-05T11:32:39.362Z,1028.14
2016-10-05T11:33:39.344Z,1028.11
2016-10-05T11:34:39.333Z,1028.08
2016-10-05T11:35:39.306Z,1028.02
2016-10-05T11:36:39.291Z,1028.03
2016-10-05T11:37:39.275Z,1027.99
2016-10-05T11:38:39.255Z,1027.98
2016-10-05T11:39:39.238Z,1028
2016-10-05T11:40:39.223Z,1028.03
2016-10-05T11:41:39.207Z,1027.91
2016-10-05T11:42:39.188Z,1027.83
2016-10-05T11:43:39.168Z,1027.79
2016-10-05T11:44:39.159Z,1027.73
2016-10-05T11:45:39.133Z,1027.69
2016-10-05T11:46:39.119Z,1027.7
2016-10-05T11:47:39.093Z,1027.67
2016-10-05T11:48:39.085Z,1027.62
2016-10-05T11:49:39.067Z,1027.65
2016-10-05T11:50:39.040Z,1027.66
2016-10-05T11:51:39.026Z,1027.61
2016-10-05T11:52:39.011Z,1027.63
2016-10-05T11:53:38.996Z,1027.63
2016-10-05T11:54:38.975Z,1027.61
2016-10-05T11:55:38.960Z,1027.62
2016-10-05T11:56:38.940Z,1027.59
2016-10-05T11:57:38.924Z,1027.57
2016-10-05T11:58:38.907Z,1027.55
2016-10-05T11:59:38.887Z,1027.55
2016-10-05T12:00:38.868Z,1027.56
2016-10-05T12:01:38.853Z,1027.58
2016-10-05T12:02:38.837Z,1027.52
2016-10-05T12:03:38.817Z,1027.53
2016-10-05T12:04:38.800Z,1027.51
2016-10-05T12:05:38.781Z,1027.48
2016-10-05T12:06:38.769Z,1027.47
2016-10-05T12:07:38.747Z,1027.5
2016-10-05T12:08:38.732Z,1027.46